sensor_id;sensor_type;location;lat;lon;timestamp;temperature;humidity
54576;DHT22;40472;53.486;14.542;2022-09-13T00:00:34;11.90;99.90
54576;DHT22;40472;53.486;14.542;2022-09-13T00:03:00;12.00;99.90
54576;DHT22;40472;53.486;14.542;2022-09-13T00:05:26;12.00;99.90
54576;DHT22;40472;53.486;14.542;2022-09-13T00:07:53;11.90;99.90
54576;DHT22;40472;53.486;14.542;2022-09-13T00:10:19;11.90;99.90
54576;DHT22;40472;53.486;14.542;2022-09-13T00:12:47;11.90;99.90
54576;DHT22;40472;53.486;14.542;2022-09-13T00:15:13;11.90;99.90
54576;DHT22;40472;53.486;14.542;2022-09-13T00:17:39;11.90;99.90
54576;DHT22;40472;53.486;14.542;2022-09-13T00:20:05;11.90;99.90
54576;DHT22;40472;53.486;14.542;2022-09-13T00:22:32;11.80;99.90
54576;DHT22;40472;53.486;14.542;2022-09-13T00:24:58;11.80;99.90
54576;DHT22;40472;53.486;14.542;2022-09-13T00:27:23;11.80;99.90
54576;DHT22;40472;53.486;14.542;2022-09-13T00:29:49;11.80;99.90
54576;DHT22;40472;53.486;14.542;2022-09-13T00:32:16;11.90;99.90
54576;DHT22;40472;53.486;14.542;2022-09-13T00:34:42;11.90;99.90
54576;DHT22;40472;53.486;14.542;2022-09-13T00:37:08;11.90;99.90
54576;DHT22;40472;53.486;14.542;2022-09-13T00:39:34;11.90;99.90
54576;DHT22;40472;53.486;14.542;2022-09-13T00:42:00;12.00;99.90
54576;DHT22;40472;53.486;14.542;2022-09-13T00:44:53;12.00;99.90
54576;DHT22;40472;53.486;14.542;2022-09-13T00:52:57;12.00;99.90
54576;DHT22;40472;53.486;14.542;2022-09-13T00:55:33;12.00;99.90
54576;DHT22;40472;53.486;14.542;2022-09-13T00:58:05;12.10;99.90
54576;DHT22;40472;53.486;14.542;2022-09-13T01:00:32;12.10;99.90
54576;DHT22;40472;53.486;14.542;2022-09-13T01:03:01;12.30;99.90
54576;DHT22;40472;53.486;14.542;2022-09-13T01:05:31;12.30;99.90
54576;DHT22;40472;53.486;14.542;2022-09-13T01:07:58;12.30;99.90
54576;DHT22;40472;53.486;14.542;2022-09-13T01:10:25;12.50;99.90
54576;DHT22;40472;53.486;14.542;2022-09-13T01:13:03;12.60;99.90
54576;DHT22;40472;53.486;14.542;2022-09-13T01:15:36;12.70;99.90
54576;DHT22;40472;53.486;14.542;2022-09-13T01:18:01;12.70;99.90
54576;DHT22;40472;53.486;14.542;2022-09-13T01:29:08;13.30;99.90
54576;DHT22;40472;53.486;14.542;2022-09-13T01:32:06;13.30;99.90
54576;DHT22;40472;53.486;14.542;2022-09-13T01:46:03;13.30;99.90
54576;DHT22;40472;53.486;14.542;2022-09-13T01:57:15;13.30;99.90
54576;DHT22;40472;53.486;14.542;2022-09-13T02:05:04;13.20;99.90
54576;DHT22;40472;53.486;14.542;2022-09-13T02:07:42;13.20;99.90
54576;DHT22;40472;53.486;14.542;2022-09-13T02:10:34;13.20;99.90
54576;DHT22;40472;53.486;14.542;2022-09-13T02:13:05;13.20;99.90
54576;DHT22;40472;53.486;14.542;2022-09-13T02:15:39;13.20;99.90
54576;DHT22;40472;53.486;14.542;2022-09-13T02:18:14;13.20;99.90
54576;DHT22;40472;53.486;14.542;2022-09-13T02:20:43;13.20;99.90
54576;DHT22;40472;53.486;14.542;2022-09-13T02:23:28;13.20;99.90
54576;DHT22;40472;53.486;14.542;2022-09-13T02:25:56;13.20;99.90
54576;DHT22;40472;53.486;14.542;2022-09-13T02:28:30;13.20;99.90
54576;DHT22;40472;53.486;14.542;2022-09-13T02:30:58;13.20;99.90
54576;DHT22;40472;53.486;14.542;2022-09-13T02:33:41;13.20;99.90
54576;DHT22;40472;53.486;14.542;2022-09-13T02:36:15;13.20;99.90
54576;DHT22;40472;53.486;14.542;2022-09-13T02:38:56;13.20;99.90
54576;DHT22;40472;53.486;14.542;2022-09-13T02:41:27;13.20;99.90
54576;DHT22;40472;53.486;14.542;2022-09-13T02:44:02;13.20;99.90
54576;DHT22;40472;53.486;14.542;2022-09-13T02:49:25;13.20;99.90
54576;DHT22;40472;53.486;14.542;2022-09-13T02:54:53;13.20;99.90
54576;DHT22;40472;53.486;14.542;2022-09-13T02:57:32;13.20;99.90
54576;DHT22;40472;53.486;14.542;2022-09-13T03:00:04;13.20;99.90
54576;DHT22;40472;53.486;14.542;2022-09-13T03:02:33;13.10;99.90
54576;DHT22;40472;53.486;14.542;2022-09-13T03:05:00;13.10;99.90
54576;DHT22;40472;53.486;14.542;2022-09-13T03:07:26;13.10;99.90
54576;DHT22;40472;53.486;14.542;2022-09-13T03:09:55;13.10;99.90
54576;DHT22;40472;53.486;14.542;2022-09-13T03:29:52;13.10;99.90
54576;DHT22;40472;53.486;14.542;2022-09-13T03:43:09;13.10;99.90
54576;DHT22;40472;53.486;14.542;2022-09-13T03:45:51;13.10;99.90
54576;DHT22;40472;53.486;14.542;2022-09-13T03:48:18;13.10;99.90
54576;DHT22;40472;53.486;14.542;2022-09-13T03:50:46;13.10;99.90
54576;DHT22;40472;53.486;14.542;2022-09-13T03:53:17;13.10;99.90
54576;DHT22;40472;53.486;14.542;2022-09-13T03:55:44;13.10;99.90
54576;DHT22;40472;53.486;14.542;2022-09-13T03:58:15;13.20;99.90
54576;DHT22;40472;53.486;14.542;2022-09-13T04:00:41;13.20;99.90
54576;DHT22;40472;53.486;14.542;2022-09-13T04:03:08;13.20;99.90
54576;DHT22;40472;53.486;14.542;2022-09-13T04:05:34;13.20;99.90
54576;DHT22;40472;53.486;14.542;2022-09-13T04:08:01;13.20;99.90
54576;DHT22;40472;53.486;14.542;2022-09-13T04:10:27;13.20;99.90
54576;DHT22;40472;53.486;14.542;2022-09-13T04:12:56;13.20;99.90
54576;DHT22;40472;53.486;14.542;2022-09-13T04:15:23;13.10;99.90
54576;DHT22;40472;53.486;14.542;2022-09-13T04:17:49;13.20;99.90
54576;DHT22;40472;53.486;14.542;2022-09-13T04:20:15;13.30;99.90
54576;DHT22;40472;53.486;14.542;2022-09-13T04:22:41;13.30;99.90
54576;DHT22;40472;53.486;14.542;2022-09-13T04:25:07;13.30;99.90
54576;DHT22;40472;53.486;14.542;2022-09-13T04:27:33;13.30;99.90
54576;DHT22;40472;53.486;14.542;2022-09-13T04:30:00;13.30;99.90
54576;DHT22;40472;53.486;14.542;2022-09-13T04:32:27;13.30;99.90
54576;DHT22;40472;53.486;14.542;2022-09-13T04:34:54;13.30;99.90
54576;DHT22;40472;53.486;14.542;2022-09-13T04:37:20;13.30;99.90
54576;DHT22;40472;53.486;14.542;2022-09-13T04:39:46;13.30;99.90
54576;DHT22;40472;53.486;14.542;2022-09-13T04:42:12;13.30;99.90
54576;DHT22;40472;53.486;14.542;2022-09-13T04:44:38;13.30;99.90
54576;DHT22;40472;53.486;14.542;2022-09-13T04:47:05;13.30;99.90
54576;DHT22;40472;53.486;14.542;2022-09-13T04:49:31;13.30;99.90
54576;DHT22;40472;53.486;14.542;2022-09-13T04:51:56;13.30;99.90
54576;DHT22;40472;53.486;14.542;2022-09-13T04:54:22;13.40;99.90
54576;DHT22;40472;53.486;14.542;2022-09-13T04:56:48;13.30;99.90
54576;DHT22;40472;53.486;14.542;2022-09-13T04:59:14;13.40;99.90
54576;DHT22;40472;53.486;14.542;2022-09-13T05:01:40;13.40;99.90
54576;DHT22;40472;53.486;14.542;2022-09-13T05:04:08;13.40;99.90
54576;DHT22;40472;53.486;14.542;2022-09-13T05:06:34;13.40;99.90
54576;DHT22;40472;53.486;14.542;2022-09-13T05:09:00;13.40;99.90
54576;DHT22;40472;53.486;14.542;2022-09-13T05:11:27;13.40;99.90
54576;DHT22;40472;53.486;14.542;2022-09-13T05:13:58;13.40;99.90
54576;DHT22;40472;53.486;14.542;2022-09-13T05:16:26;13.40;99.90
54576;DHT22;40472;53.486;14.542;2022-09-13T05:18:52;13.40;99.90
54576;DHT22;40472;53.486;14.542;2022-09-13T05:21:19;13.50;99.90
54576;DHT22;40472;53.486;14.542;2022-09-13T05:23:48;13.50;99.90
54576;DHT22;40472;53.486;14.542;2022-09-13T05:26:14;13.40;99.90
54576;DHT22;40472;53.486;14.542;2022-09-13T05:28:40;13.40;99.90
54576;DHT22;40472;53.486;14.542;2022-09-13T05:31:15;13.50;99.90
54576;DHT22;40472;53.486;14.542;2022-09-13T05:33:41;13.40;99.90
54576;DHT22;40472;53.486;14.542;2022-09-13T05:36:07;13.40;99.90
54576;DHT22;40472;53.486;14.542;2022-09-13T05:38:34;13.50;99.90
54576;DHT22;40472;53.486;14.542;2022-09-13T05:41:01;13.40;99.90
54576;DHT22;40472;53.486;14.542;2022-09-13T05:43:31;13.50;99.90
54576;DHT22;40472;53.486;14.542;2022-09-13T05:46:08;13.50;99.90
54576;DHT22;40472;53.486;14.542;2022-09-13T05:48:35;13.50;99.90
54576;DHT22;40472;53.486;14.542;2022-09-13T05:51:12;13.50;99.90
54576;DHT22;40472;53.486;14.542;2022-09-13T05:53:40;13.60;99.90
54576;DHT22;40472;53.486;14.542;2022-09-13T05:56:12;13.60;99.90
54576;DHT22;40472;53.486;14.542;2022-09-13T05:58:42;13.60;99.90
54576;DHT22;40472;53.486;14.542;2022-09-13T06:01:09;13.60;99.90
54576;DHT22;40472;53.486;14.542;2022-09-13T06:03:35;13.60;99.90
54576;DHT22;40472;53.486;14.542;2022-09-13T06:06:01;13.50;99.90
54576;DHT22;40472;53.486;14.542;2022-09-13T06:08:29;13.50;99.90
54576;DHT22;40472;53.486;14.542;2022-09-13T06:13:25;13.60;99.90
54576;DHT22;40472;53.486;14.542;2022-09-13T06:15:52;13.60;99.90
54576;DHT22;40472;53.486;14.542;2022-09-13T06:18:19;13.70;99.90
54576;DHT22;40472;53.486;14.542;2022-09-13T06:20:45;13.70;99.90
54576;DHT22;40472;53.486;14.542;2022-09-13T06:23:11;13.60;99.90
54576;DHT22;40472;53.486;14.542;2022-09-13T06:25:37;13.60;99.90
54576;DHT22;40472;53.486;14.542;2022-09-13T06:28:03;13.70;99.90
54576;DHT22;40472;53.486;14.542;2022-09-13T06:30:29;13.70;99.90
54576;DHT22;40472;53.486;14.542;2022-09-13T06:32:55;13.80;99.90
54576;DHT22;40472;53.486;14.542;2022-09-13T06:35:23;13.80;99.90
54576;DHT22;40472;53.486;14.542;2022-09-13T06:37:49;13.80;99.90
54576;DHT22;40472;53.486;14.542;2022-09-13T06:40:15;13.80;99.90
54576;DHT22;40472;53.486;14.542;2022-09-13T06:42:45;13.80;99.90
54576;DHT22;40472;53.486;14.542;2022-09-13T06:45:10;13.80;99.90
54576;DHT22;40472;53.486;14.542;2022-09-13T06:47:36;13.80;99.90
54576;DHT22;40472;53.486;14.542;2022-09-13T06:50:02;13.80;99.90
54576;DHT22;40472;53.486;14.542;2022-09-13T06:52:28;13.90;99.90
54576;DHT22;40472;53.486;14.542;2022-09-13T06:54:54;13.90;99.90
54576;DHT22;40472;53.486;14.542;2022-09-13T06:57:19;13.90;99.90
54576;DHT22;40472;53.486;14.542;2022-09-13T06:59:45;13.90;99.90
54576;DHT22;40472;53.486;14.542;2022-09-13T07:02:11;14.00;99.90
54576;DHT22;40472;53.486;14.542;2022-09-13T07:04:39;14.00;99.90
54576;DHT22;40472;53.486;14.542;2022-09-13T07:07:05;14.10;99.90
54576;DHT22;40472;53.486;14.542;2022-09-13T07:09:30;14.10;99.90
54576;DHT22;40472;53.486;14.542;2022-09-13T07:11:56;14.30;99.90
54576;DHT22;40472;53.486;14.542;2022-09-13T07:14:26;14.50;99.90
54576;DHT22;40472;53.486;14.542;2022-09-13T07:16:52;14.80;99.90
54576;DHT22;40472;53.486;14.542;2022-09-13T07:19:23;15.00;99.90
54576;DHT22;40472;53.486;14.542;2022-09-13T07:21:51;15.20;99.90
54576;DHT22;40472;53.486;14.542;2022-09-13T07:24:18;15.20;99.90
54576;DHT22;40472;53.486;14.542;2022-09-13T07:26:45;15.20;99.90
54576;DHT22;40472;53.486;14.542;2022-09-13T07:29:14;15.00;99.90
54576;DHT22;40472;53.486;14.542;2022-09-13T07:31:43;14.90;99.90
54576;DHT22;40472;53.486;14.542;2022-09-13T07:34:17;14.80;99.90
54576;DHT22;40472;53.486;14.542;2022-09-13T07:36:45;14.80;99.90
54576;DHT22;40472;53.486;14.542;2022-09-13T07:39:12;14.70;99.90
54576;DHT22;40472;53.486;14.542;2022-09-13T07:41:39;14.70;99.90
54576;DHT22;40472;53.486;14.542;2022-09-13T07:44:05;14.70;99.90
54576;DHT22;40472;53.486;14.542;2022-09-13T07:46:33;14.80;99.90
54576;DHT22;40472;53.486;14.542;2022-09-13T07:49:03;14.80;99.90
54576;DHT22;40472;53.486;14.542;2022-09-13T07:51:34;14.70;99.90
54576;DHT22;40472;53.486;14.542;2022-09-13T07:54:03;14.60;99.90
54576;DHT22;40472;53.486;14.542;2022-09-13T07:56:31;14.60;99.90
54576;DHT22;40472;53.486;14.542;2022-09-13T07:58:59;14.60;99.90
54576;DHT22;40472;53.486;14.542;2022-09-13T08:01:37;14.60;99.90
54576;DHT22;40472;53.486;14.542;2022-09-13T08:04:06;14.60;99.90
54576;DHT22;40472;53.486;14.542;2022-09-13T08:06:34;14.70;99.90
54576;DHT22;40472;53.486;14.542;2022-09-13T08:09:00;14.70;99.90
54576;DHT22;40472;53.486;14.542;2022-09-13T08:11:38;14.70;99.90
54576;DHT22;40472;53.486;14.542;2022-09-13T08:14:05;14.80;99.90
54576;DHT22;40472;53.486;14.542;2022-09-13T08:16:32;14.80;99.90
54576;DHT22;40472;53.486;14.542;2022-09-13T08:19:00;14.90;99.90
54576;DHT22;40472;53.486;14.542;2022-09-13T08:21:32;14.90;99.90
54576;DHT22;40472;53.486;14.542;2022-09-13T08:23:58;14.90;99.90
54576;DHT22;40472;53.486;14.542;2022-09-13T08:26:26;15.00;99.90
54576;DHT22;40472;53.486;14.542;2022-09-13T08:29:03;15.00;99.90
54576;DHT22;40472;53.486;14.542;2022-09-13T08:31:30;15.20;99.90
54576;DHT22;40472;53.486;14.542;2022-09-13T08:33:56;15.40;99.90
54576;DHT22;40472;53.486;14.542;2022-09-13T08:36:23;15.50;99.90
54576;DHT22;40472;53.486;14.542;2022-09-13T08:38:51;15.50;99.90
54576;DHT22;40472;53.486;14.542;2022-09-13T08:46:36;15.30;99.90
54576;DHT22;40472;53.486;14.542;2022-09-13T08:49:09;15.40;99.90
54576;DHT22;40472;53.486;14.542;2022-09-13T08:51:45;15.40;99.90
54576;DHT22;40472;53.486;14.542;2022-09-13T08:54:14;15.30;99.90
54576;DHT22;40472;53.486;14.542;2022-09-13T09:05:18;15.50;99.90
54576;DHT22;40472;53.486;14.542;2022-09-13T09:07:53;15.60;99.90
54576;DHT22;40472;53.486;14.542;2022-09-13T09:10:29;15.90;99.90
54576;DHT22;40472;53.486;14.542;2022-09-13T09:16:02;16.30;99.90
54576;DHT22;40472;53.486;14.542;2022-09-13T09:18:37;16.20;99.90
54576;DHT22;40472;53.486;14.542;2022-09-13T09:21:03;16.30;99.90
54576;DHT22;40472;53.486;14.542;2022-09-13T09:23:42;16.40;99.90
54576;DHT22;40472;53.486;14.542;2022-09-13T09:26:20;16.30;99.90
54576;DHT22;40472;53.486;14.542;2022-09-13T09:28:57;16.30;99.90
54576;DHT22;40472;53.486;14.542;2022-09-13T09:39:45;15.90;99.90
54576;DHT22;40472;53.486;14.542;2022-09-13T09:42:15;16.00;99.90
54576;DHT22;40472;53.486;14.542;2022-09-13T09:44:51;16.00;99.90
54576;DHT22;40472;53.486;14.542;2022-09-13T09:47:19;16.00;99.90
54576;DHT22;40472;53.486;14.542;2022-09-13T09:58:06;16.10;99.90
54576;DHT22;40472;53.486;14.542;2022-09-13T10:00:49;16.20;99.90
54576;DHT22;40472;53.486;14.542;2022-09-13T10:03:27;16.20;99.90
54576;DHT22;40472;53.486;14.542;2022-09-13T10:06:05;16.30;99.90
54576;DHT22;40472;53.486;14.542;2022-09-13T10:08:34;16.10;99.90
54576;DHT22;40472;53.486;14.542;2022-09-13T10:11:02;16.10;99.90
54576;DHT22;40472;53.486;14.542;2022-09-13T10:13:29;16.20;99.90
54576;DHT22;40472;53.486;14.542;2022-09-13T10:15:57;16.20;99.90
54576;DHT22;40472;53.486;14.542;2022-09-13T10:18:25;16.30;99.90
54576;DHT22;40472;53.486;14.542;2022-09-13T10:21:07;16.40;99.90
54576;DHT22;40472;53.486;14.542;2022-09-13T10:23:46;16.40;99.90
54576;DHT22;40472;53.486;14.542;2022-09-13T10:26:19;16.40;99.90
54576;DHT22;40472;53.486;14.542;2022-09-13T10:31:34;16.70;99.90
54576;DHT22;40472;53.486;14.542;2022-09-13T10:34:02;16.70;99.90
54576;DHT22;40472;53.486;14.542;2022-09-13T10:36:36;16.60;99.90
54576;DHT22;40472;53.486;14.542;2022-09-13T10:41:34;16.60;99.90
54576;DHT22;40472;53.486;14.542;2022-09-13T10:44:05;16.80;99.90
54576;DHT22;40472;53.486;14.542;2022-09-13T10:46:33;16.80;99.90
54576;DHT22;40472;53.486;14.542;2022-09-13T10:49:00;16.90;99.90
54576;DHT22;40472;53.486;14.542;2022-09-13T10:56:40;17.00;99.90
54576;DHT22;40472;53.486;14.542;2022-09-13T10:59:24;16.90;99.90
54576;DHT22;40472;53.486;14.542;2022-09-13T11:10:36;16.70;99.90
54576;DHT22;40472;53.486;14.542;2022-09-13T11:21:35;16.60;99.90
54576;DHT22;40472;53.486;14.542;2022-09-13T11:26:59;16.60;99.90
54576;DHT22;40472;53.486;14.542;2022-09-13T11:55:37;17.40;99.90
54576;DHT22;40472;53.486;14.542;2022-09-13T11:58:11;17.50;99.90
54576;DHT22;40472;53.486;14.542;2022-09-13T12:00:42;17.60;99.90
54576;DHT22;40472;53.486;14.542;2022-09-13T12:05:43;17.50;99.90
54576;DHT22;40472;53.486;14.542;2022-09-13T12:13:21;17.60;99.90
54576;DHT22;40472;53.486;14.542;2022-09-13T12:15:51;17.70;99.90
54576;DHT22;40472;53.486;14.542;2022-09-13T12:18:29;17.80;99.90
54576;DHT22;40472;53.486;14.542;2022-09-13T12:21:09;17.80;99.90
54576;DHT22;40472;53.486;14.542;2022-09-13T12:23:41;17.90;99.90
54576;DHT22;40472;53.486;14.542;2022-09-13T12:29:17;18.00;99.90
54576;DHT22;40472;53.486;14.542;2022-09-13T12:31:44;18.00;99.90
54576;DHT22;40472;53.486;14.542;2022-09-13T12:37:26;17.90;99.90
54576;DHT22;40472;53.486;14.542;2022-09-13T12:49:11;17.50;99.90
54576;DHT22;40472;53.486;14.542;2022-09-13T12:54:30;17.70;99.90
54576;DHT22;40472;53.486;14.542;2022-09-13T13:00:29;17.60;99.90
54576;DHT22;40472;53.486;14.542;2022-09-13T13:03:26;17.70;99.90
54576;DHT22;40472;53.486;14.542;2022-09-13T13:06:09;17.80;99.90
54576;DHT22;40472;53.486;14.542;2022-09-13T13:08:36;17.90;99.90
54576;DHT22;40472;53.486;14.542;2022-09-13T13:11:10;18.10;99.90
54576;DHT22;40472;53.486;14.542;2022-09-13T13:13:43;18.30;99.90
54576;DHT22;40472;53.486;14.542;2022-09-13T13:16:26;18.30;99.90
54576;DHT22;40472;53.486;14.542;2022-09-13T13:18:54;18.40;99.90
54576;DHT22;40472;53.486;14.542;2022-09-13T13:21:25;18.50;99.90
54576;DHT22;40472;53.486;14.542;2022-09-13T13:26:54;18.80;99.90
54576;DHT22;40472;53.486;14.542;2022-09-13T13:29:29;19.10;99.90
54576;DHT22;40472;53.486;14.542;2022-09-13T13:37:30;19.30;99.90
54576;DHT22;40472;53.486;14.542;2022-09-13T13:39:44;19.30;99.90
54576;DHT22;40472;53.486;14.542;2022-09-13T13:57:30;19.30;99.90
54576;DHT22;40472;53.486;14.542;2022-09-13T14:05:42;18.80;99.90
54576;DHT22;40472;53.486;14.542;2022-09-13T14:11:07;18.80;99.90
54576;DHT22;40472;53.486;14.542;2022-09-13T14:16:38;18.80;99.90
54576;DHT22;40472;53.486;14.542;2022-09-13T14:19:29;18.70;99.90
54576;DHT22;40472;53.486;14.542;2022-09-13T14:24:40;18.80;99.90
54576;DHT22;40472;53.486;14.542;2022-09-13T14:27:13;18.80;99.90
54576;DHT22;40472;53.486;14.542;2022-09-13T14:29:44;18.80;99.90
54576;DHT22;40472;53.486;14.542;2022-09-13T14:32:18;18.60;99.90
54576;DHT22;40472;53.486;14.542;2022-09-13T14:35:02;18.40;99.90
54576;DHT22;40472;53.486;14.542;2022-09-13T14:37:31;18.40;99.90
54576;DHT22;40472;53.486;14.542;2022-09-13T14:42:23;18.40;99.90
54576;DHT22;40472;53.486;14.542;2022-09-13T14:44:49;18.40;99.90
54576;DHT22;40472;53.486;14.542;2022-09-13T14:47:23;18.40;99.90
54576;DHT22;40472;53.486;14.542;2022-09-13T14:49:59;18.50;99.90
54576;DHT22;40472;53.486;14.542;2022-09-13T14:52:35;18.50;99.90
54576;DHT22;40472;53.486;14.542;2022-09-13T14:55:06;18.50;99.90
54576;DHT22;40472;53.486;14.542;2022-09-13T14:57:42;18.40;99.90
54576;DHT22;40472;53.486;14.542;2022-09-13T15:02:39;18.30;99.90
54576;DHT22;40472;53.486;14.542;2022-09-13T15:05:15;18.30;99.90
54576;DHT22;40472;53.486;14.542;2022-09-13T15:07:41;18.20;99.90
54576;DHT22;40472;53.486;14.542;2022-09-13T15:10:31;18.20;99.90
54576;DHT22;40472;53.486;14.542;2022-09-13T15:15:34;18.40;99.90
54576;DHT22;40472;53.486;14.542;2022-09-13T15:18:46;18.50;99.90
54576;DHT22;40472;53.486;14.542;2022-09-13T15:20:58;18.50;99.90
54576;DHT22;40472;53.486;14.542;2022-09-13T15:23:38;18.50;99.90
54576;DHT22;40472;53.486;14.542;2022-09-13T15:26:22;18.40;99.90
54576;DHT22;40472;53.486;14.542;2022-09-13T15:28:53;18.30;99.90
54576;DHT22;40472;53.486;14.542;2022-09-13T15:31:32;18.30;99.90
54576;DHT22;40472;53.486;14.542;2022-09-13T15:36:42;18.40;99.90
54576;DHT22;40472;53.486;14.542;2022-09-13T15:41:36;18.30;99.90
54576;DHT22;40472;53.486;14.542;2022-09-13T15:44:07;18.30;99.90
54576;DHT22;40472;53.486;14.542;2022-09-13T15:46:49;18.40;99.90
54576;DHT22;40472;53.486;14.542;2022-09-13T15:49:24;18.40;99.90
54576;DHT22;40472;53.486;14.542;2022-09-13T15:52:02;18.40;99.90
54576;DHT22;40472;53.486;14.542;2022-09-13T15:54:37;18.70;99.90
54576;DHT22;40472;53.486;14.542;2022-09-13T15:57:27;19.10;99.90
54576;DHT22;40472;53.486;14.542;2022-09-13T15:59:54;19.30;99.90
54576;DHT22;40472;53.486;14.542;2022-09-13T16:02:22;19.30;99.90
54576;DHT22;40472;53.486;14.542;2022-09-13T16:04:48;19.30;99.90
54576;DHT22;40472;53.486;14.542;2022-09-13T16:07:14;19.20;99.90
54576;DHT22;40472;53.486;14.542;2022-09-13T16:09:41;18.80;99.90
54576;DHT22;40472;53.486;14.542;2022-09-13T16:12:07;18.50;99.90
54576;DHT22;40472;53.486;14.542;2022-09-13T16:14:33;18.40;99.90
54576;DHT22;40472;53.486;14.542;2022-09-13T16:17:04;18.40;99.90
54576;DHT22;40472;53.486;14.542;2022-09-13T16:19:31;18.30;99.90
54576;DHT22;40472;53.486;14.542;2022-09-13T16:21:57;18.30;99.90
54576;DHT22;40472;53.486;14.542;2022-09-13T16:24:23;18.30;99.90
54576;DHT22;40472;53.486;14.542;2022-09-13T16:26:48;18.20;99.90
54576;DHT22;40472;53.486;14.542;2022-09-13T16:29:14;18.20;99.90
54576;DHT22;40472;53.486;14.542;2022-09-13T16:31:40;18.10;99.90
54576;DHT22;40472;53.486;14.542;2022-09-13T16:34:06;17.90;99.90
54576;DHT22;40472;53.486;14.542;2022-09-13T16:36:32;17.70;99.90
54576;DHT22;40472;53.486;14.542;2022-09-13T16:38:59;17.50;99.90
54576;DHT22;40472;53.486;14.542;2022-09-13T16:41:25;17.40;99.90
54576;DHT22;40472;53.486;14.542;2022-09-13T16:43:52;17.40;99.90
54576;DHT22;40472;53.486;14.542;2022-09-13T16:46:18;17.20;99.90
54576;DHT22;40472;53.486;14.542;2022-09-13T16:48:45;17.20;99.90
54576;DHT22;40472;53.486;14.542;2022-09-13T16:51:11;17.10;99.90
54576;DHT22;40472;53.486;14.542;2022-09-13T16:53:39;16.90;99.90
54576;DHT22;40472;53.486;14.542;2022-09-13T16:56:07;16.80;99.90
54576;DHT22;40472;53.486;14.542;2022-09-13T16:58:37;16.70;99.90
54576;DHT22;40472;53.486;14.542;2022-09-13T17:01:08;16.40;99.90
54576;DHT22;40472;53.486;14.542;2022-09-13T17:03:34;16.30;99.90
54576;DHT22;40472;53.486;14.542;2022-09-13T17:06:06;16.10;99.90
54576;DHT22;40472;53.486;14.542;2022-09-13T17:08:33;16.00;99.90
54576;DHT22;40472;53.486;14.542;2022-09-13T17:11:03;16.00;99.90
54576;DHT22;40472;53.486;14.542;2022-09-13T17:13:29;15.90;99.90
54576;DHT22;40472;53.486;14.542;2022-09-13T17:15:54;15.80;99.90
54576;DHT22;40472;53.486;14.542;2022-09-13T17:18:21;15.80;99.90
54576;DHT22;40472;53.486;14.542;2022-09-13T17:20:48;15.70;99.90
54576;DHT22;40472;53.486;14.542;2022-09-13T17:23:15;15.70;99.90
54576;DHT22;40472;53.486;14.542;2022-09-13T17:25:47;15.70;99.90
54576;DHT22;40472;53.486;14.542;2022-09-13T17:28:14;15.70;99.90
54576;DHT22;40472;53.486;14.542;2022-09-13T17:30:41;15.80;99.90
54576;DHT22;40472;53.486;14.542;2022-09-13T17:33:08;15.80;99.90
54576;DHT22;40472;53.486;14.542;2022-09-13T17:35:34;15.80;99.90
54576;DHT22;40472;53.486;14.542;2022-09-13T17:38:01;15.80;99.90
54576;DHT22;40472;53.486;14.542;2022-09-13T17:40:28;15.60;99.90
54576;DHT22;40472;53.486;14.542;2022-09-13T17:42:54;15.50;99.90
54576;DHT22;40472;53.486;14.542;2022-09-13T17:45:21;15.40;99.90
54576;DHT22;40472;53.486;14.542;2022-09-13T17:47:47;15.40;99.90
54576;DHT22;40472;53.486;14.542;2022-09-13T17:50:13;15.40;99.90
54576;DHT22;40472;53.486;14.542;2022-09-13T17:52:39;15.40;99.90
54576;DHT22;40472;53.486;14.542;2022-09-13T17:55:05;15.40;99.90
54576;DHT22;40472;53.486;14.542;2022-09-13T17:57:32;15.40;99.90
54576;DHT22;40472;53.486;14.542;2022-09-13T17:59:57;15.40;99.90
54576;DHT22;40472;53.486;14.542;2022-09-13T18:02:23;15.30;99.90
54576;DHT22;40472;53.486;14.542;2022-09-13T18:04:51;15.40;99.90
54576;DHT22;40472;53.486;14.542;2022-09-13T18:07:17;15.40;99.90
54576;DHT22;40472;53.486;14.542;2022-09-13T18:09:43;15.40;99.90
54576;DHT22;40472;53.486;14.542;2022-09-13T18:12:09;15.40;99.90
54576;DHT22;40472;53.486;14.542;2022-09-13T18:14:36;15.40;99.90
54576;DHT22;40472;53.486;14.542;2022-09-13T18:17:03;15.40;99.90
54576;DHT22;40472;53.486;14.542;2022-09-13T18:19:40;15.40;99.90
54576;DHT22;40472;53.486;14.542;2022-09-13T18:22:07;15.40;99.90
54576;DHT22;40472;53.486;14.542;2022-09-13T18:24:34;15.30;99.90
54576;DHT22;40472;53.486;14.542;2022-09-13T18:27:00;15.20;99.90
54576;DHT22;40472;53.486;14.542;2022-09-13T18:29:26;15.10;99.90
54576;DHT22;40472;53.486;14.542;2022-09-13T18:31:57;15.10;99.90
54576;DHT22;40472;53.486;14.542;2022-09-13T18:34:23;15.00;99.90
54576;DHT22;40472;53.486;14.542;2022-09-13T18:36:49;14.90;99.90
54576;DHT22;40472;53.486;14.542;2022-09-13T18:39:19;14.90;99.90
54576;DHT22;40472;53.486;14.542;2022-09-13T18:41:47;14.80;99.90
54576;DHT22;40472;53.486;14.542;2022-09-13T18:44:14;14.70;99.90
54576;DHT22;40472;53.486;14.542;2022-09-13T18:46:40;14.60;99.90
54576;DHT22;40472;53.486;14.542;2022-09-13T18:49:06;14.60;99.90
54576;DHT22;40472;53.486;14.542;2022-09-13T18:51:38;14.50;99.90
54576;DHT22;40472;53.486;14.542;2022-09-13T18:54:06;14.50;99.90
54576;DHT22;40472;53.486;14.542;2022-09-13T18:56:32;14.60;99.90
54576;DHT22;40472;53.486;14.542;2022-09-13T18:59:00;14.60;99.90
54576;DHT22;40472;53.486;14.542;2022-09-13T19:01:28;14.50;99.90
54576;DHT22;40472;53.486;14.542;2022-09-13T19:03:59;14.30;99.90
54576;DHT22;40472;53.486;14.542;2022-09-13T19:06:34;14.20;99.90
54576;DHT22;40472;53.486;14.542;2022-09-13T19:09:01;14.10;99.90
54576;DHT22;40472;53.486;14.542;2022-09-13T19:11:32;14.00;99.90
54576;DHT22;40472;53.486;14.542;2022-09-13T19:13:58;13.90;99.90
54576;DHT22;40472;53.486;14.542;2022-09-13T19:16:23;13.90;99.90
54576;DHT22;40472;53.486;14.542;2022-09-13T19:18:51;13.70;99.90
54576;DHT22;40472;53.486;14.542;2022-09-13T19:21:21;13.60;99.90
54576;DHT22;40472;53.486;14.542;2022-09-13T19:23:48;13.50;99.90
54576;DHT22;40472;53.486;14.542;2022-09-13T19:26:49;13.40;99.90
54576;DHT22;40472;53.486;14.542;2022-09-13T19:29:13;13.30;99.90
54576;DHT22;40472;53.486;14.542;2022-09-13T19:31:41;13.20;99.90
54576;DHT22;40472;53.486;14.542;2022-09-13T19:34:08;13.10;99.90
54576;DHT22;40472;53.486;14.542;2022-09-13T19:36:36;13.10;99.90